sensor_id;sensor_type;location;lat;lon;timestamp;P1;durP1;ratioP1;P2;durP2;ratioP2
25758;SDS011;13604;52.496;13.456;2022-12-29T00:01:42;2.80;;;2.00;;
25758;SDS011;13604;52.496;13.456;2022-12-29T00:04:09;3.00;;;2.15;;
25758;SDS011;13604;52.496;13.456;2022-12-29T00:06:37;3.25;;;1.90;;
25758;SDS011;13604;52.496;13.456;2022-12-29T00:09:02;4.68;;;1.98;;
25758;SDS011;13604;52.496;13.456;2022-12-29T00:11:28;6.85;;;2.00;;
25758;SDS011;13604;52.496;13.456;2022-12-29T00:13:53;4.00;;;2.05;;
25758;SDS011;13604;52.496;13.456;2022-12-29T00:16:38;3.90;;;2.15;;
25758;SDS011;13604;52.496;13.456;2022-12-29T00:19:06;3.80;;;2.28;;
25758;SDS011;13604;52.496;13.456;2022-12-29T00:21:31;9.20;;;2.17;;
25758;SDS011;13604;52.496;13.456;2022-12-29T00:24:19;3.47;;;2.30;;
25758;SDS011;13604;52.496;13.456;2022-12-29T00:26:55;5.57;;;1.80;;
25758;SDS011;13604;52.496;13.456;2022-12-29T00:29:48;5.35;;;2.40;;
25758;SDS011;13604;52.496;13.456;2022-12-29T00:32:32;4.10;;;2.13;;
25758;SDS011;13604;52.496;13.456;2022-12-29T00:35:23;4.43;;;1.92;;
25758;SDS011;13604;52.496;13.456;2022-12-29T00:37:52;4.50;;;2.13;;
25758;SDS011;13604;52.496;13.456;2022-12-29T00:40:39;3.15;;;2.35;;
25758;SDS011;13604;52.496;13.456;2022-12-29T00:43:23;2.97;;;1.90;;
25758;SDS011;13604;52.496;13.456;2022-12-29T00:46:07;2.38;;;1.77;;
25758;SDS011;13604;52.496;13.456;2022-12-29T00:48:32;5.07;;;1.88;;
25758;SDS011;13604;52.496;13.456;2022-12-29T00:51:16;3.87;;;1.87;;
25758;SDS011;13604;52.496;13.456;2022-12-29T00:53:41;3.47;;;1.92;;
25758;SDS011;13604;52.496;13.456;2022-12-29T00:56:07;5.22;;;2.08;;
25758;SDS011;13604;52.496;13.456;2022-12-29T00:58:32;4.65;;;2.08;;
25758;SDS011;13604;52.496;13.456;2022-12-29T01:01:05;4.18;;;1.73;;
25758;SDS011;13604;52.496;13.456;2022-12-29T01:03:31;2.90;;;1.60;;
25758;SDS011;13604;52.496;13.456;2022-12-29T01:05:59;3.03;;;1.77;;
25758;SDS011;13604;52.496;13.456;2022-12-29T01:08:26;3.90;;;2.08;;
25758;SDS011;13604;52.496;13.456;2022-12-29T01:11:09;3.28;;;2.17;;
25758;SDS011;13604;52.496;13.456;2022-12-29T01:13:36;6.85;;;2.13;;
25758;SDS011;13604;52.496;13.456;2022-12-29T01:16:03;3.03;;;2.00;;
25758;SDS011;13604;52.496;13.456;2022-12-29T01:18:28;5.93;;;2.10;;
25758;SDS011;13604;52.496;13.456;2022-12-29T01:21:00;4.40;;;2.10;;
25758;SDS011;13604;52.496;13.456;2022-12-29T01:23:27;6.97;;;2.30;;
25758;SDS011;13604;52.496;13.456;2022-12-29T01:25:53;2.67;;;1.80;;
25758;SDS011;13604;52.496;13.456;2022-12-29T01:28:18;6.30;;;2.47;;
25758;SDS011;13604;52.496;13.456;2022-12-29T01:30:44;5.22;;;1.75;;
25758;SDS011;13604;52.496;13.456;2022-12-29T01:33:09;2.28;;;1.90;;
25758;SDS011;13604;52.496;13.456;2022-12-29T01:35:34;5.13;;;2.05;;
25758;SDS011;13604;52.496;13.456;2022-12-29T01:38:00;3.83;;;2.38;;
25758;SDS011;13604;52.496;13.456;2022-12-29T01:40:25;3.08;;;2.00;;
25758;SDS011;13604;52.496;13.456;2022-12-29T01:42:50;3.53;;;2.22;;
25758;SDS011;13604;52.496;13.456;2022-12-29T01:45:16;5.63;;;1.92;;
25758;SDS011;13604;52.496;13.456;2022-12-29T01:50:18;4.55;;;1.80;;
25758;SDS011;13604;52.496;13.456;2022-12-29T01:52:55;3.22;;;2.03;;
25758;SDS011;13604;52.496;13.456;2022-12-29T01:55:24;4.43;;;2.20;;
25758;SDS011;13604;52.496;13.456;2022-12-29T01:57:53;3.38;;;2.63;;
25758;SDS011;13604;52.496;13.456;2022-12-29T02:00:23;7.97;;;2.10;;
25758;SDS011;13604;52.496;13.456;2022-12-29T02:02:50;4.70;;;2.30;;
25758;SDS011;13604;52.496;13.456;2022-12-29T02:08:05;7.43;;;2.42;;
25758;SDS011;13604;52.496;13.456;2022-12-29T02:10:31;5.07;;;2.08;;
25758;SDS011;13604;52.496;13.456;2022-12-29T02:12:59;2.65;;;2.25;;
25758;SDS011;13604;52.496;13.456;2022-12-29T02:15:29;4.30;;;1.90;;
25758;SDS011;13604;52.496;13.456;2022-12-29T02:30:11;4.57;;;2.38;;
25758;SDS011;13604;52.496;13.456;2022-12-29T02:35:35;2.35;;;2.10;;
25758;SDS011;13604;52.496;13.456;2022-12-29T02:41:09;3.78;;;2.20;;
25758;SDS011;13604;52.496;13.456;2022-12-29T02:43:48;2.92;;;1.70;;
25758;SDS011;13604;52.496;13.456;2022-12-29T02:51:42;3.42;;;1.90;;
25758;SDS011;13604;52.496;13.456;2022-12-29T02:54:16;4.55;;;2.30;;
25758;SDS011;13604;52.496;13.456;2022-12-29T02:57:02;2.13;;;1.60;;
25758;SDS011;13604;52.496;13.456;2022-12-29T02:59:27;3.92;;;2.00;;
25758;SDS011;13604;52.496;13.456;2022-12-29T03:13:37;3.67;;;1.85;;
25758;SDS011;13604;52.496;13.456;2022-12-29T03:16:47;2.05;;;1.60;;
25758;SDS011;13604;52.496;13.456;2022-12-29T03:19:24;2.72;;;1.52;;
25758;SDS011;13604;52.496;13.456;2022-12-29T03:22:05;2.97;;;2.00;;
25758;SDS011;13604;52.496;13.456;2022-12-29T03:24:52;3.08;;;1.70;;
25758;SDS011;13604;52.496;13.456;2022-12-29T03:27:23;2.53;;;1.90;;
25758;SDS011;13604;52.496;13.456;2022-12-29T03:29:57;3.30;;;1.40;;
25758;SDS011;13604;52.496;13.456;2022-12-29T03:32:26;1.90;;;1.70;;
25758;SDS011;13604;52.496;13.456;2022-12-29T03:35:22;3.28;;;1.73;;
25758;SDS011;13604;52.496;13.456;2022-12-29T03:38:11;2.47;;;1.88;;
25758;SDS011;13604;52.496;13.456;2022-12-29T03:40:43;5.13;;;1.92;;
25758;SDS011;13604;52.496;13.456;2022-12-29T03:43:12;2.97;;;1.60;;
25758;SDS011;13604;52.496;13.456;2022-12-29T03:45:38;6.88;;;2.13;;
25758;SDS011;13604;52.496;13.456;2022-12-29T03:48:04;7.05;;;1.80;;
25758;SDS011;13604;52.496;13.456;2022-12-29T03:50:29;3.47;;;1.80;;
25758;SDS011;13604;52.496;13.456;2022-12-29T03:52:55;2.83;;;1.52;;
25758;SDS011;13604;52.496;13.456;2022-12-29T03:55:20;2.85;;;1.80;;
25758;SDS011;13604;52.496;13.456;2022-12-29T03:57:45;2.70;;;1.73;;
25758;SDS011;13604;52.496;13.456;2022-12-29T04:00:11;5.32;;;1.63;;
25758;SDS011;13604;52.496;13.456;2022-12-29T04:02:37;4.32;;;1.80;;
25758;SDS011;13604;52.496;13.456;2022-12-29T04:05:02;2.53;;;1.80;;
25758;SDS011;13604;52.496;13.456;2022-12-29T04:07:27;5.85;;;1.70;;
25758;SDS011;13604;52.496;13.456;2022-12-29T04:09:53;3.05;;;1.70;;
25758;SDS011;13604;52.496;13.456;2022-12-29T04:12:18;4.10;;;1.83;;
25758;SDS011;13604;52.496;13.456;2022-12-29T04:14:43;3.25;;;1.88;;
25758;SDS011;13604;52.496;13.456;2022-12-29T04:17:09;2.15;;;1.58;;
25758;SDS011;13604;52.496;13.456;2022-12-29T04:19:34;3.85;;;2.05;;
25758;SDS011;13604;52.496;13.456;2022-12-29T04:21:59;5.35;;;1.83;;
25758;SDS011;13604;52.496;13.456;2022-12-29T04:24:25;4.32;;;2.25;;
25758;SDS011;13604;52.496;13.456;2022-12-29T04:26:50;5.20;;;2.17;;
25758;SDS011;13604;52.496;13.456;2022-12-29T04:29:15;2.67;;;2.03;;
25758;SDS011;13604;52.496;13.456;2022-12-29T04:31:41;2.92;;;1.67;;
25758;SDS011;13604;52.496;13.456;2022-12-29T04:34:06;5.22;;;1.73;;
25758;SDS011;13604;52.496;13.456;2022-12-29T04:36:32;3.42;;;1.80;;
25758;SDS011;13604;52.496;13.456;2022-12-29T04:38:57;3.25;;;1.77;;
25758;SDS011;13604;52.496;13.456;2022-12-29T04:41:22;2.05;;;1.83;;
25758;SDS011;13604;52.496;13.456;2022-12-29T04:43:48;2.13;;;1.85;;
25758;SDS011;13604;52.496;13.456;2022-12-29T04:46:13;3.47;;;1.80;;
25758;SDS011;13604;52.496;13.456;2022-12-29T04:48:38;3.28;;;1.63;;
25758;SDS011;13604;52.496;13.456;2022-12-29T04:51:04;3.15;;;1.70;;
25758;SDS011;13604;52.496;13.456;2022-12-29T04:53:29;2.70;;;1.42;;
25758;SDS011;13604;52.496;13.456;2022-12-29T04:55:54;3.80;;;1.50;;
25758;SDS011;13604;52.496;13.456;2022-12-29T04:58:20;2.53;;;1.60;;
25758;SDS011;13604;52.496;13.456;2022-12-29T05:00:46;2.95;;;1.80;;
25758;SDS011;13604;52.496;13.456;2022-12-29T05:03:11;4.80;;;2.55;;
25758;SDS011;13604;52.496;13.456;2022-12-29T05:05:36;4.15;;;2.03;;
25758;SDS011;13604;52.496;13.456;2022-12-29T05:08:02;4.32;;;2.13;;
25758;SDS011;13604;52.496;13.456;2022-12-29T05:10:27;3.42;;;2.00;;
25758;SDS011;13604;52.496;13.456;2022-12-29T05:12:53;3.25;;;1.98;;
25758;SDS011;13604;52.496;13.456;2022-12-29T05:15:18;2.30;;;1.70;;
25758;SDS011;13604;52.496;13.456;2022-12-29T05:17:43;3.00;;;1.90;;
25758;SDS011;13604;52.496;13.456;2022-12-29T05:20:09;3.25;;;1.70;;
25758;SDS011;13604;52.496;13.456;2022-12-29T05:22:34;3.03;;;1.90;;
25758;SDS011;13604;52.496;13.456;2022-12-29T05:25:00;4.00;;;1.80;;
25758;SDS011;13604;52.496;13.456;2022-12-29T05:27:25;3.97;;;1.60;;
25758;SDS011;13604;52.496;13.456;2022-12-29T05:29:50;3.65;;;1.60;;
25758;SDS011;13604;52.496;13.456;2022-12-29T05:32:16;5.38;;;2.08;;
25758;SDS011;13604;52.496;13.456;2022-12-29T05:34:41;2.03;;;1.63;;
25758;SDS011;13604;52.496;13.456;2022-12-29T05:37:06;2.17;;;1.83;;
25758;SDS011;13604;52.496;13.456;2022-12-29T05:39:32;4.38;;;2.10;;
25758;SDS011;13604;52.496;13.456;2022-12-29T05:41:57;2.72;;;1.55;;
25758;SDS011;13604;52.496;13.456;2022-12-29T05:44:22;3.17;;;1.98;;
25758;SDS011;13604;52.496;13.456;2022-12-29T05:46:48;3.60;;;1.77;;
25758;SDS011;13604;52.496;13.456;2022-12-29T05:49:13;3.50;;;2.15;;
25758;SDS011;13604;52.496;13.456;2022-12-29T05:51:38;3.35;;;2.03;;
25758;SDS011;13604;52.496;13.456;2022-12-29T05:54:03;2.00;;;1.75;;
25758;SDS011;13604;52.496;13.456;2022-12-29T05:56:29;3.67;;;1.88;;
25758;SDS011;13604;52.496;13.456;2022-12-29T05:58:54;6.25;;;2.28;;
25758;SDS011;13604;52.496;13.456;2022-12-29T06:01:20;2.80;;;1.70;;
25758;SDS011;13604;52.496;13.456;2022-12-29T06:03:45;2.53;;;1.58;;
25758;SDS011;13604;52.496;13.456;2022-12-29T06:06:10;4.43;;;1.70;;
25758;SDS011;13604;52.496;13.456;2022-12-29T06:08:35;3.10;;;2.08;;
25758;SDS011;13604;52.496;13.456;2022-12-29T06:11:01;2.38;;;1.60;;
25758;SDS011;13604;52.496;13.456;2022-12-29T06:13:26;3.33;;;1.77;;
25758;SDS011;13604;52.496;13.456;2022-12-29T06:15:52;3.63;;;1.90;;
25758;SDS011;13604;52.496;13.456;2022-12-29T06:18:17;3.97;;;1.60;;
25758;SDS011;13604;52.496;13.456;2022-12-29T06:20:43;4.25;;;1.83;;
25758;SDS011;13604;52.496;13.456;2022-12-29T06:23:08;5.93;;;2.25;;
25758;SDS011;13604;52.496;13.456;2022-12-29T06:25:33;2.85;;;1.85;;
25758;SDS011;13604;52.496;13.456;2022-12-29T06:28:00;2.63;;;1.90;;
25758;SDS011;13604;52.496;13.456;2022-12-29T06:30:26;3.72;;;1.58;;
25758;SDS011;13604;52.496;13.456;2022-12-29T06:32:52;3.03;;;1.85;;
25758;SDS011;13604;52.496;13.456;2022-12-29T06:35:17;2.95;;;1.70;;
25758;SDS011;13604;52.496;13.456;2022-12-29T06:37:43;2.92;;;1.63;;
25758;SDS011;13604;52.496;13.456;2022-12-29T06:40:08;6.35;;;1.70;;
25758;SDS011;13604;52.496;13.456;2022-12-29T06:42:34;3.92;;;1.30;;
25758;SDS011;13604;52.496;13.456;2022-12-29T06:45:00;4.25;;;1.80;;
25758;SDS011;13604;52.496;13.456;2022-12-29T06:47:25;1.98;;;1.77;;
25758;SDS011;13604;52.496;13.456;2022-12-29T06:49:51;2.60;;;1.98;;
25758;SDS011;13604;52.496;13.456;2022-12-29T06:52:17;4.55;;;2.20;;
25758;SDS011;13604;52.496;13.456;2022-12-29T06:54:42;2.65;;;1.80;;
25758;SDS011;13604;52.496;13.456;2022-12-29T06:57:07;3.65;;;1.65;;
25758;SDS011;13604;52.496;13.456;2022-12-29T06:59:33;2.65;;;1.85;;
25758;SDS011;13604;52.496;13.456;2022-12-29T07:01:58;2.67;;;1.73;;
25758;SDS011;13604;52.496;13.456;2022-12-29T07:04:23;3.33;;;1.98;;
25758;SDS011;13604;52.496;13.456;2022-12-29T07:06:48;3.08;;;1.77;;
25758;SDS011;13604;52.496;13.456;2022-12-29T07:09:14;4.93;;;1.67;;
25758;SDS011;13604;52.496;13.456;2022-12-29T07:11:39;2.05;;;1.60;;
25758;SDS011;13604;52.496;13.456;2022-12-29T07:14:04;2.28;;;1.52;;
25758;SDS011;13604;52.496;13.456;2022-12-29T07:16:30;2.95;;;1.77;;
25758;SDS011;13604;52.496;13.456;2022-12-29T07:18:56;2.95;;;1.48;;
25758;SDS011;13604;52.496;13.456;2022-12-29T07:21:23;5.50;;;1.73;;
25758;SDS011;13604;52.496;13.456;2022-12-29T07:23:49;2.78;;;1.33;;
25758;SDS011;13604;52.496;13.456;2022-12-29T07:26:14;2.85;;;1.60;;
25758;SDS011;13604;52.496;13.456;2022-12-29T07:28:42;3.78;;;2.13;;
25758;SDS011;13604;52.496;13.456;2022-12-29T07:31:15;2.88;;;1.80;;
25758;SDS011;13604;52.496;13.456;2022-12-29T07:33:43;2.47;;;1.48;;
25758;SDS011;13604;52.496;13.456;2022-12-29T07:36:09;3.35;;;1.33;;
25758;SDS011;13604;52.496;13.456;2022-12-29T07:38:35;1.65;;;1.40;;
25758;SDS011;13604;52.496;13.456;2022-12-29T07:41:00;1.92;;;1.40;;
25758;SDS011;13604;52.496;13.456;2022-12-29T07:43:25;1.85;;;1.20;;
25758;SDS011;13604;52.496;13.456;2022-12-29T07:45:50;3.58;;;1.50;;
25758;SDS011;13604;52.496;13.456;2022-12-29T07:48:16;3.50;;;1.52;;
25758;SDS011;13604;52.496;13.456;2022-12-29T07:50:41;2.10;;;1.38;;
25758;SDS011;13604;52.496;13.456;2022-12-29T07:53:06;4.30;;;1.50;;
25758;SDS011;13604;52.496;13.456;2022-12-29T07:55:32;2.00;;;1.50;;
25758;SDS011;13604;52.496;13.456;2022-12-29T07:57:57;3.58;;;1.63;;
25758;SDS011;13604;52.496;13.456;2022-12-29T08:00:22;3.08;;;1.50;;
25758;SDS011;13604;52.496;13.456;2022-12-29T08:02:48;4.50;;;1.50;;
25758;SDS011;13604;52.496;13.456;2022-12-29T08:05:14;2.40;;;1.38;;
25758;SDS011;13604;52.496;13.456;2022-12-29T08:07:42;2.78;;;1.65;;
25758;SDS011;13604;52.496;13.456;2022-12-29T08:10:08;2.00;;;1.50;;
25758;SDS011;13604;52.496;13.456;2022-12-29T08:12:34;2.28;;;1.70;;
25758;SDS011;13604;52.496;13.456;2022-12-29T08:14:59;3.03;;;1.77;;
25758;SDS011;13604;52.496;13.456;2022-12-29T08:17:25;1.55;;;1.38;;
25758;SDS011;13604;52.496;13.456;2022-12-29T08:19:50;2.22;;;1.60;;
25758;SDS011;13604;52.496;13.456;2022-12-29T08:22:15;3.47;;;1.40;;
25758;SDS011;13604;52.496;13.456;2022-12-29T08:24:41;2.20;;;1.35;;
25758;SDS011;13604;52.496;13.456;2022-12-29T08:27:06;4.40;;;1.60;;
25758;SDS011;13604;52.496;13.456;2022-12-29T08:29:31;4.70;;;1.35;;
25758;SDS011;13604;52.496;13.456;2022-12-29T08:31:56;2.28;;;1.80;;
25758;SDS011;13604;52.496;13.456;2022-12-29T08:34:22;3.53;;;1.65;;
25758;SDS011;13604;52.496;13.456;2022-12-29T08:36:47;2.63;;;1.80;;
25758;SDS011;13604;52.496;13.456;2022-12-29T08:39:13;4.25;;;1.35;;
25758;SDS011;13604;52.496;13.456;2022-12-29T08:41:38;5.07;;;1.45;;
25758;SDS011;13604;52.496;13.456;2022-12-29T08:44:04;2.95;;;1.70;;
25758;SDS011;13604;52.496;13.456;2022-12-29T08:46:29;3.00;;;1.77;;
25758;SDS011;13604;52.496;13.456;2022-12-29T08:48:54;2.78;;;1.58;;
25758;SDS011;13604;52.496;13.456;2022-12-29T08:51:20;5.28;;;2.28;;
25758;SDS011;13604;52.496;13.456;2022-12-29T08:53:45;1.63;;;1.50;;
25758;SDS011;13604;52.496;13.456;2022-12-29T08:56:10;4.07;;;2.10;;
25758;SDS011;13604;52.496;13.456;2022-12-29T08:58:36;2.92;;;1.42;;
25758;SDS011;13604;52.496;13.456;2022-12-29T09:01:02;2.70;;;1.70;;
25758;SDS011;13604;52.496;13.456;2022-12-29T09:03:28;2.05;;;1.25;;
25758;SDS011;13604;52.496;13.456;2022-12-29T09:05:53;2.60;;;1.50;;
25758;SDS011;13604;52.496;13.456;2022-12-29T09:08:20;3.05;;;1.60;;
25758;SDS011;13604;52.496;13.456;2022-12-29T09:10:46;3.10;;;1.45;;
25758;SDS011;13604;52.496;13.456;2022-12-29T09:13:12;2.42;;;1.50;;
25758;SDS011;13604;52.496;13.456;2022-12-29T09:15:38;3.50;;;1.63;;
25758;SDS011;13604;52.496;13.456;2022-12-29T09:18:04;2.50;;;1.48;;
25758;SDS011;13604;52.496;13.456;2022-12-29T09:20:31;5.15;;;1.77;;
25758;SDS011;13604;52.496;13.456;2022-12-29T09:22:56;3.63;;;1.90;;
25758;SDS011;13604;52.496;13.456;2022-12-29T09:25:21;2.45;;;1.42;;
25758;SDS011;13604;52.496;13.456;2022-12-29T09:27:49;3.72;;;1.35;;
25758;SDS011;13604;52.496;13.456;2022-12-29T09:30:18;4.18;;;1.40;;
25758;SDS011;13604;52.496;13.456;2022-12-29T09:32:45;2.55;;;1.20;;
25758;SDS011;13604;52.496;13.456;2022-12-29T09:35:11;2.00;;;1.13;;
25758;SDS011;13604;52.496;13.456;2022-12-29T09:37:37;2.90;;;1.60;;
25758;SDS011;13604;52.496;13.456;2022-12-29T09:40:03;3.38;;;1.65;;
25758;SDS011;13604;52.496;13.456;2022-12-29T09:42:32;1.90;;;1.45;;
25758;SDS011;13604;52.496;13.456;2022-12-29T09:45:16;2.67;;;1.58;;
25758;SDS011;13604;52.496;13.456;2022-12-29T09:47:49;5.13;;;1.60;;
25758;SDS011;13604;52.496;13.456;2022-12-29T09:50:32;2.95;;;1.70;;
25758;SDS011;13604;52.496;13.456;2022-12-29T09:53:01;1.45;;;1.30;;
25758;SDS011;13604;52.496;13.456;2022-12-29T09:55:35;1.50;;;1.30;;
25758;SDS011;13604;52.496;13.456;2022-12-29T10:04:19;3.97;;;1.23;;
25758;SDS011;13604;52.496;13.456;2022-12-29T10:06:51;4.38;;;1.38;;
25758;SDS011;13604;52.496;13.456;2022-12-29T10:09:29;1.70;;;1.17;;
25758;SDS011;13604;52.496;13.456;2022-12-29T10:12:15;1.77;;;1.55;;
25758;SDS011;13604;52.496;13.456;2022-12-29T10:25:58;4.82;;;1.45;;
25758;SDS011;13604;52.496;13.456;2022-12-29T10:28:38;3.95;;;1.30;;
25758;SDS011;13604;52.496;13.456;2022-12-29T10:31:09;3.80;;;1.35;;
25758;SDS011;13604;52.496;13.456;2022-12-29T10:33:41;5.15;;;1.30;;
25758;SDS011;13604;52.496;13.456;2022-12-29T10:36:12;2.60;;;1.05;;
25758;SDS011;13604;52.496;13.456;2022-12-29T10:38:51;2.70;;;1.58;;
25758;SDS011;13604;52.496;13.456;2022-12-29T10:41:25;2.38;;;1.42;;
25758;SDS011;13604;52.496;13.456;2022-12-29T10:43:59;1.77;;;1.20;;
25758;SDS011;13604;52.496;13.456;2022-12-29T10:46:27;1.85;;;1.10;;
25758;SDS011;13604;52.496;13.456;2022-12-29T10:48:57;0.82;;;0.80;;
25758;SDS011;13604;52.496;13.456;2022-12-29T10:51:24;2.17;;;1.30;;
25758;SDS011;13604;52.496;13.456;2022-12-29T10:53:59;2.10;;;1.15;;
25758;SDS011;13604;52.496;13.456;2022-12-29T10:56:34;3.97;;;2.00;;
25758;SDS011;13604;52.496;13.456;2022-12-29T10:59:13;3.15;;;1.30;;
25758;SDS011;13604;52.496;13.456;2022-12-29T11:02:12;2.75;;;0.90;;
25758;SDS011;13604;52.496;13.456;2022-12-29T11:04:55;2.75;;;1.33;;
25758;SDS011;13604;52.496;13.456;2022-12-29T11:07:29;2.53;;;1.35;;
25758;SDS011;13604;52.496;13.456;2022-12-29T11:09:55;2.35;;;1.13;;
25758;SDS011;13604;52.496;13.456;2022-12-29T11:12:55;4.45;;;1.13;;
25758;SDS011;13604;52.496;13.456;2022-12-29T11:15:26;4.47;;;1.30;;
25758;SDS011;13604;52.496;13.456;2022-12-29T11:17:56;2.30;;;1.15;;
25758;SDS011;13604;52.496;13.456;2022-12-29T11:20:35;2.67;;;1.35;;
25758;SDS011;13604;52.496;13.456;2022-12-29T11:23:03;3.20;;;1.50;;
25758;SDS011;13604;52.496;13.456;2022-12-29T11:28:43;1.88;;;1.27;;
25758;SDS011;13604;52.496;13.456;2022-12-29T11:31:13;2.33;;;1.10;;
25758;SDS011;13604;52.496;13.456;2022-12-29T11:33:41;2.10;;;0.90;;
25758;SDS011;13604;52.496;13.456;2022-12-29T11:36:08;0.93;;;0.90;;
25758;SDS011;13604;52.496;13.456;2022-12-29T11:38:39;3.38;;;1.38;;
25758;SDS011;13604;52.496;13.456;2022-12-29T11:41:09;2.22;;;1.10;;
25758;SDS011;13604;52.496;13.456;2022-12-29T11:43:37;1.58;;;1.30;;
25758;SDS011;13604;52.496;13.456;2022-12-29T11:46:06;2.63;;;1.20;;
25758;SDS011;13604;52.496;13.456;2022-12-29T11:48:38;2.08;;;1.27;;
25758;SDS011;13604;52.496;13.456;2022-12-29T11:51:05;1.80;;;1.25;;
25758;SDS011;13604;52.496;13.456;2022-12-29T11:53:38;4.05;;;1.30;;
25758;SDS011;13604;52.496;13.456;2022-12-29T11:56:12;1.52;;;0.95;;
25758;SDS011;13604;52.496;13.456;2022-12-29T11:58:40;2.67;;;1.35;;
25758;SDS011;13604;52.496;13.456;2022-12-29T12:03:42;1.40;;;0.80;;
25758;SDS011;13604;52.496;13.456;2022-12-29T12:06:19;1.75;;;1.00;;
25758;SDS011;13604;52.496;13.456;2022-12-29T12:08:56;1.98;;;1.05;;
25758;SDS011;13604;52.496;13.456;2022-12-29T12:11:32;2.40;;;1.08;;
25758;SDS011;13604;52.496;13.456;2022-12-29T12:14:19;2.03;;;0.90;;
25758;SDS011;13604;52.496;13.456;2022-12-29T12:16:55;5.35;;;1.00;;
25758;SDS011;13604;52.496;13.456;2022-12-29T12:19:52;2.47;;;1.33;;
25758;SDS011;13604;52.496;13.456;2022-12-29T12:22:31;2.30;;;1.23;;
25758;SDS011;13604;52.496;13.456;2022-12-29T12:25:18;1.35;;;1.02;;
25758;SDS011;13604;52.496;13.456;2022-12-29T12:27:48;3.22;;;1.58;;
25758;SDS011;13604;52.496;13.456;2022-12-29T12:30:27;2.45;;;1.30;;
25758;SDS011;13604;52.496;13.456;2022-12-29T12:33:00;1.70;;;1.20;;
25758;SDS011;13604;52.496;13.456;2022-12-29T12:35:41;6.50;;;1.88;;
25758;SDS011;13604;52.496;13.456;2022-12-29T12:38:37;6.88;;;2.17;;
25758;SDS011;13604;52.496;13.456;2022-12-29T12:44:09;3.20;;;1.83;;
25758;SDS011;13604;52.496;13.456;2022-12-29T12:54:57;2.25;;;1.60;;
25758;SDS011;13604;52.496;13.456;2022-12-29T12:57:49;5.47;;;1.58;;
25758;SDS011;13604;52.496;13.456;2022-12-29T13:00:25;4.35;;;1.50;;
25758;SDS011;13604;52.496;13.456;2022-12-29T13:03:10;1.88;;;1.30;;
25758;SDS011;13604;52.496;13.456;2022-12-29T13:05:46;3.58;;;1.50;;
25758;SDS011;13604;52.496;13.456;2022-12-29T13:08:38;3.75;;;1.52;;
25758;SDS011;13604;52.496;13.456;2022-12-29T13:11:41;3.00;;;1.60;;
25758;SDS011;13604;52.496;13.456;2022-12-29T13:14:50;2.03;;;1.48;;
25758;SDS011;13604;52.496;13.456;2022-12-29T13:17:32;2.90;;;1.38;;
25758;SDS011;13604;52.496;13.456;2022-12-29T13:20:18;4.38;;;1.95;;
25758;SDS011;13604;52.496;13.456;2022-12-29T13:22:57;3.00;;;1.30;;
25758;SDS011;13604;52.496;13.456;2022-12-29T13:31:00;2.72;;;1.48;;
25758;SDS011;13604;52.496;13.456;2022-12-29T13:33:54;3.35;;;1.73;;
25758;SDS011;13604;52.496;13.456;2022-12-29T13:36:42;2.72;;;1.67;;
25758;SDS011;13604;52.496;13.456;2022-12-29T13:39:17;2.35;;;1.45;;
25758;SDS011;13604;52.496;13.456;2022-12-29T13:41:50;4.38;;;1.85;;
25758;SDS011;13604;52.496;13.456;2022-12-29T13:44:20;3.20;;;2.03;;
25758;SDS011;13604;52.496;13.456;2022-12-29T13:46:50;6.18;;;1.88;;
25758;SDS011;13604;52.496;13.456;2022-12-29T13:49:17;7.05;;;2.15;;
25758;SDS011;13604;52.496;13.456;2022-12-29T13:51:48;3.22;;;2.08;;
25758;SDS011;13604;52.496;13.456;2022-12-29T14:00:19;8.10;;;1.90;;
25758;SDS011;13604;52.496;13.456;2022-12-29T14:05:32;5.00;;;2.00;;
25758;SDS011;13604;52.496;13.456;2022-12-29T14:08:01;3.25;;;2.05;;
25758;SDS011;13604;52.496;13.456;2022-12-29T14:10:38;2.95;;;1.80;;
25758;SDS011;13604;52.496;13.456;2022-12-29T14:13:16;3.13;;;1.80;;
25758;SDS011;13604;52.496;13.456;2022-12-29T14:15:45;4.72;;;2.00;;
25758;SDS011;13604;52.496;13.456;2022-12-29T14:18:20;4.80;;;2.03;;
25758;SDS011;13604;52.496;13.456;2022-12-29T14:20:52;3.90;;;2.25;;
25758;SDS011;13604;52.496;13.456;2022-12-29T14:23:40;2.47;;;2.00;;
25758;SDS011;13604;52.496;13.456;2022-12-29T14:28:40;3.80;;;2.08;;
25758;SDS011;13604;52.496;13.456;2022-12-29T14:33:38;3.78;;;2.00;;
25758;SDS011;13604;52.496;13.456;2022-12-29T14:36:37;3.28;;;2.28;;
25758;SDS011;13604;52.496;13.456;2022-12-29T14:39:00;4.75;;;2.10;;
25758;SDS011;13604;52.496;13.456;2022-12-29T14:41:30;6.78;;;1.98;;
25758;SDS011;13604;52.496;13.456;2022-12-29T14:44:21;3.47;;;2.17;;
25758;SDS011;13604;52.496;13.456;2022-12-29T14:46:54;3.97;;;1.67;;
25758;SDS011;13604;52.496;13.456;2022-12-29T14:49:23;2.55;;;2.00;;
25758;SDS011;13604;52.496;13.456;2022-12-29T14:51:52;3.20;;;1.75;;
25758;SDS011;13604;52.496;13.456;2022-12-29T14:54:53;5.15;;;2.60;;
25758;SDS011;13604;52.496;13.456;2022-12-29T14:57:39;4.55;;;2.45;;
25758;SDS011;13604;52.496;13.456;2022-12-29T15:00:17;5.07;;;2.60;;
25758;SDS011;13604;52.496;13.456;2022-12-29T15:02:54;5.13;;;2.22;;
25758;SDS011;13604;52.496;13.456;2022-12-29T15:05:30;2.53;;;2.33;;
25758;SDS011;13604;52.496;13.456;2022-12-29T15:07:59;7.53;;;2.35;;
25758;SDS011;13604;52.496;13.456;2022-12-29T15:10:26;5.72;;;2.38;;
25758;SDS011;13604;52.496;13.456;2022-12-29T15:13:00;5.72;;;2.90;;
25758;SDS011;13604;52.496;13.456;2022-12-29T15:15:29;5.00;;;2.55;;
25758;SDS011;13604;52.496;13.456;2022-12-29T15:20:53;4.13;;;2.58;;
25758;SDS011;13604;52.496;13.456;2022-12-29T15:23:29;6.18;;;2.85;;
25758;SDS011;13604;52.496;13.456;2022-12-29T15:26:03;8.27;;;3.25;;
25758;SDS011;13604;52.496;13.456;2022-12-29T15:28:41;6.03;;;2.92;;
25758;SDS011;13604;52.496;13.456;2022-12-29T15:31:12;6.80;;;2.10;;
25758;SDS011;13604;52.496;13.456;2022-12-29T15:33:41;4.18;;;2.10;;
25758;SDS011;13604;52.496;13.456;2022-12-29T15:36:10;3.22;;;2.20;;
25758;SDS011;13604;52.496;13.456;2022-12-29T15:38:37;5.65;;;2.55;;
25758;SDS011;13604;52.496;13.456;2022-12-29T15:41:12;5.68;;;2.38;;
25758;SDS011;13604;52.496;13.456;2022-12-29T15:46:27;4.63;;;2.17;;
25758;SDS011;13604;52.496;13.456;2022-12-29T15:48:55;4.72;;;2.35;;
25758;SDS011;13604;52.496;13.456;2022-12-29T15:51:39;5.30;;;2.30;;
25758;SDS011;13604;52.496;13.456;2022-12-29T15:54:05;4.53;;;2.72;;
25758;SDS011;13604;52.496;13.456;2022-12-29T15:56:40;2.97;;;2.20;;
25758;SDS011;13604;52.496;13.456;2022-12-29T15:59:18;5.95;;;2.50;;
25758;SDS011;13604;52.496;13.456;2022-12-29T16:01:48;4.97;;;3.08;;
25758;SDS011;13604;52.496;13.456;2022-12-29T16:04:13;6.32;;;2.65;;
25758;SDS011;13604;52.496;13.456;2022-12-29T16:06:43;5.53;;;3.05;;
25758;SDS011;13604;52.496;13.456;2022-12-29T16:09:19;5.93;;;2.65;;
25758;SDS011;13604;52.496;13.456;2022-12-29T16:12:04;9.35;;;2.97;;
25758;SDS011;13604;52.496;13.456;2022-12-29T16:14:33;4.65;;;2.97;;
25758;SDS011;13604;52.496;13.456;2022-12-29T16:17:00;5.25;;;2.90;;
25758;SDS011;13604;52.496;13.456;2022-12-29T16:19:35;7.25;;;4.22;;
25758;SDS011;13604;52.496;13.456;2022-12-29T16:22:08;7.75;;;3.45;;
25758;SDS011;13604;52.496;13.456;2022-12-29T16:24:37;4.80;;;3.65;;
25758;SDS011;13604;52.496;13.456;2022-12-29T16:27:08;4.70;;;3.22;;
25758;SDS011;13604;52.496;13.456;2022-12-29T16:29:39;6.72;;;3.47;;
25758;SDS011;13604;52.496;13.456;2022-12-29T16:32:22;5.63;;;3.00;;
25758;SDS011;13604;52.496;13.456;2022-12-29T16:35:02;4.75;;;2.97;;